If you wish to contribute or participate in the discussions about articles you are invited to join SKYbrary as a registered user

 Actions

Landivisiau Air Base

From SKYbrary Wiki

LFRJ
Airport
ICAO: LFRJ
Summary
Name Landivisiau Air Base
Region Europe
Territory France FR.gif
Location , Bretagne
Serving Landivisiau
Elevation 106.07 m
348 ft
348 ft106.07 m
Type medium airport
Coordinates 48° 31' 48.93" N, 4° 9' 5.91" W
Runways
Designator Length Width Surface ROPS
8/26 2700 m8,858.268 ft
45 m147.638 ft
CON /


METAR
Observation LFRJ 142230Z AUTO 27021KT 9999 -RA SCT013/// BKN018/// BKN035/// ///CB 09/07 Q0995
Station Landivisiau
Date/Time 14 December 2019 22:30:00
Wind direction 270°
Wind speed 21 kts
Lowest cloud amount scattered clouds
Temperature 9°C
Dew point 7°C
Humidity 87%
QNH 995 hPa
Weather condition light rain